createdAt,value
2018-03-16T00:00:19.576Z,77.30
2018-03-16T00:03:42.874Z,77.20
2018-03-16T00:07:06.170Z,76.30
2018-03-16T00:10:29.471Z,76.40
2018-03-16T00:13:53.540Z,75.70
2018-03-16T00:17:16.917Z,75.70
2018-03-16T00:20:40.213Z,76.10
2018-03-16T00:24:03.550Z,77.00
2018-03-16T00:27:26.924Z,76.50
2018-03-16T00:30:50.198Z,77.10
2018-03-16T00:34:14.330Z,77.40
2018-03-16T00:37:38.602Z,77.20
2018-03-16T00:41:01.914Z,77.80
2018-03-16T00:44:25.172Z,77.10
2018-03-16T00:47:49.207Z,77.10
2018-03-16T00:51:13.307Z,76.30
2018-03-16T00:54:36.618Z,76.30
2018-03-16T00:57:59.876Z,76.00
2018-03-16T01:01:23.958Z,77.00
2018-03-16T01:04:47.283Z,77.00
2018-03-16T01:08:11.370Z,77.20
2018-03-16T01:11:35.403Z,77.10
2018-03-16T01:14:59.532Z,76.90
2018-03-16T01:18:22.904Z,76.80
2018-03-16T01:21:46.162Z,76.40
2018-03-16T01:25:09.431Z,76.90
2018-03-16T01:28:32.709Z,77.00
2018-03-16T01:31:56.087Z,77.70
2018-03-16T01:35:20.166Z,79.00
2018-03-16T01:38:43.415Z,78.90
2018-03-16T01:42:06.752Z,78.90
2018-03-16T01:45:30.119Z,79.60
2018-03-16T01:48:53.439Z,80.10
2018-03-16T01:52:16.769Z,80.50
2018-03-16T01:55:40.819Z,81.50
2018-03-16T01:59:04.935Z,81.70
2018-03-16T02:02:28.214Z,81.70
2018-03-16T02:05:52.266Z,82.70
2018-03-16T02:09:15.587Z,82.50
2018-03-16T02:12:38.849Z,83.00
2018-03-16T02:16:02.167Z,83.20
2018-03-16T02:19:26.196Z,83.70
2018-03-16T02:22:50.259Z,83.60
2018-03-16T02:26:13.521Z,83.50
2018-03-16T02:29:36.775Z,83.30
2018-03-16T02:33:00.123Z,83.10
2018-03-16T02:36:23.400Z,83.90
2018-03-16T02:39:47.486Z,84.20
2018-03-16T02:43:11.573Z,84.80
2018-03-16T02:46:35.717Z,84.90
2018-03-16T02:49:59.843Z,85.30
2018-03-16T02:53:23.122Z,85.00
2018-03-16T02:56:47.185Z,85.70
2018-03-16T03:00:10.447Z,85.60
2018-03-16T03:03:33.716Z,86.70
2018-03-16T03:06:57.053Z,87.70
2018-03-16T03:10:20.346Z,88.10
2018-03-16T03:13:43.691Z,89.10
2018-03-16T03:17:07.021Z,88.80
2018-03-16T03:20:31.149Z,88.90
2018-03-16T03:23:54.446Z,88.90
2018-03-16T03:27:17.787Z,88.80
2018-03-16T03:30:41.090Z,89.00
2018-03-16T03:34:04.358Z,88.30
2018-03-16T03:37:27.664Z,88.40
2018-03-16T03:40:51.695Z,88.70
2018-03-16T03:44:15.765Z,88.80
2018-03-16T03:47:39.083Z,88.70
2018-03-16T03:51:02.383Z,88.50
2018-03-16T03:54:25.636Z,88.70
2018-03-16T03:57:49.759Z,89.20
2018-03-16T04:01:13.083Z,89.00
2018-03-16T04:04:37.176Z,88.60
2018-03-16T04:08:01.236Z,88.90
2018-03-16T04:11:24.620Z,88.70
2018-03-16T04:14:47.957Z,89.00
2018-03-16T04:18:11.199Z,88.80
2018-03-16T04:21:34.573Z,88.90
2018-03-16T04:24:57.877Z,88.80
2018-03-16T04:28:21.153Z,88.70
2018-03-16T04:31:44.452Z,88.60
2018-03-16T04:35:08.492Z,88.10
2018-03-16T04:38:32.524Z,88.20
2018-03-16T04:41:56.571Z,87.90
2018-03-16T04:45:19.909Z,87.80
2018-03-16T04:48:43.208Z,87.80
2018-03-16T04:52:06.508Z,87.70
2018-03-16T04:55:30.641Z,86.90
2018-03-16T04:58:53.940Z,86.80
2018-03-16T05:02:17.281Z,86.90
2018-03-16T05:05:41.412Z,86.90
2018-03-16T05:09:05.464Z,86.80
2018-03-16T05:12:29.528Z,86.90
2018-03-16T05:15:52.904Z,86.90
2018-03-16T05:19:16.240Z,86.90
2018-03-16T05:22:40.984Z,86.80
2018-03-16T05:26:05.118Z,86.70
2018-03-16T05:29:28.438Z,86.70
2018-03-16T05:32:51.755Z,86.80
2018-03-16T05:36:15.032Z,86.80
2018-03-16T05:39:39.162Z,87.30
2018-03-16T05:43:03.226Z,88.00
2018-03-16T05:46:26.580Z,87.90
2018-03-16T05:49:50.628Z,87.70
2018-03-16T05:53:13.951Z,87.70
2018-03-16T05:56:37.290Z,87.60
2018-03-16T06:00:00.661Z,86.00
2018-03-16T06:00:48.051Z,86.80
2018-03-16T06:04:50.861Z,87.00
2018-03-16T06:05:25.656Z,86.90
2018-03-16T06:06:00.950Z,91.10
2018-03-16T06:06:34.243Z,91.20
2018-03-16T06:12:05.720Z,74.50
2018-03-16T06:12:38.550Z,69.30
2018-03-16T06:13:58.592Z,63.90
2018-03-16T06:22:06.799Z,50.40
2018-03-16T06:23:44.526Z,48.80
2018-03-16T06:29:17.684Z,58.20
2018-03-16T06:29:51.017Z,59.60
2018-03-16T06:30:25.092Z,64.20
2018-03-16T06:30:58.441Z,63.70
2018-03-16T06:31:31.813Z,65.70
2018-03-16T06:32:05.188Z,66.50
2018-03-16T06:32:39.349Z,70.50
2018-03-16T06:33:12.644Z,70.40
2018-03-16T06:33:46.784Z,71.40
2018-03-16T06:34:20.077Z,72.90
2018-03-16T06:34:54.485Z,73.80
2018-03-16T06:35:27.775Z,75.60
2018-03-16T06:36:01.906Z,75.10
2018-03-16T06:36:35.699Z,75.00
2018-03-16T06:37:09.100Z,75.90
2018-03-16T06:37:42.403Z,76.50
2018-03-16T06:38:15.722Z,76.70
2018-03-16T06:38:49.836Z,77.80
2018-03-16T06:39:23.172Z,77.70
2018-03-16T06:39:56.408Z,78.60
2018-03-16T06:40:29.729Z,78.90
2018-03-16T06:41:03.075Z,79.00
2018-03-16T06:41:36.349Z,79.70
2018-03-16T06:42:09.684Z,79.70
2018-03-16T06:42:43.016Z,80.30
2018-03-16T06:43:16.289Z,80.90
2018-03-16T06:43:49.560Z,81.20
2018-03-16T06:44:22.865Z,81.00
2018-03-16T06:44:56.374Z,81.10
2018-03-16T06:45:30.211Z,81.80
2018-03-16T06:46:04.295Z,82.00
2018-03-16T06:46:37.668Z,81.90
2018-03-16T06:47:11.026Z,81.70
2018-03-16T06:47:45.076Z,89.50
2018-03-16T06:48:19.114Z,88.10
2018-03-16T06:48:52.461Z,87.90
2018-03-16T06:49:26.584Z,83.10
2018-03-16T06:50:00.097Z,83.10
2018-03-16T06:50:34.128Z,86.10
2018-03-16T06:51:07.407Z,86.00
2018-03-16T06:51:40.768Z,83.50
2018-03-16T06:52:14.090Z,80.50
2018-03-16T06:52:48.159Z,73.60
2018-03-16T06:53:21.446Z,73.40
2018-03-16T06:53:54.744Z,74.20
2018-03-16T06:54:28.796Z,75.00
2018-03-16T06:55:02.905Z,76.60
2018-03-16T06:55:36.409Z,76.60
2018-03-16T06:56:09.715Z,79.00
2018-03-16T06:56:43.772Z,77.00
2018-03-16T06:57:17.174Z,77.00
2018-03-16T06:57:50.611Z,78.20
2018-03-16T06:58:23.955Z,79.50
2018-03-16T06:58:58.053Z,78.70
2018-03-16T06:59:32.706Z,79.10
2018-03-16T07:00:06.847Z,80.70
2018-03-16T07:00:40.144Z,79.90
2018-03-16T07:01:14.284Z,80.60
2018-03-16T07:01:47.569Z,80.40
2018-03-16T07:02:20.884Z,81.30
2018-03-16T07:02:54.267Z,82.30
2018-03-16T07:03:28.430Z,82.20
2018-03-16T07:04:01.787Z,82.00
2018-03-16T07:04:35.885Z,82.70
2018-03-16T07:05:10.012Z,84.30
2018-03-16T07:05:43.306Z,84.30
2018-03-16T07:06:17.494Z,84.10
2018-03-16T07:06:50.871Z,84.00
2018-03-16T07:07:24.197Z,86.20
2018-03-16T07:07:57.510Z,85.00
2018-03-16T07:08:31.624Z,83.30
2018-03-16T07:09:05.024Z,83.20
2018-03-16T07:09:38.377Z,82.90
2018-03-16T07:10:12.434Z,82.70
2018-03-16T07:10:46.534Z,83.10
2018-03-16T07:11:20.650Z,83.50
2018-03-16T07:11:53.988Z,84.10
2018-03-16T07:12:28.258Z,83.40
2018-03-16T07:13:03.552Z,84.10
2018-03-16T07:13:38.288Z,84.00
2018-03-16T07:14:11.720Z,84.10
2018-03-16T07:14:45.001Z,82.90
2018-03-16T07:15:37.096Z,82.40
2018-03-16T07:16:11.140Z,82.90
2018-03-16T07:16:45.178Z,83.90
2018-03-16T07:17:19.260Z,83.80
2018-03-16T07:17:52.618Z,83.70
2018-03-16T07:18:26.672Z,84.40
2018-03-16T07:19:00.020Z,85.90
2018-03-16T07:19:33.303Z,85.70
2018-03-16T07:20:06.616Z,86.20
2018-03-16T07:20:40.763Z,86.50
2018-03-16T07:21:14.816Z,85.80
2018-03-16T07:21:49.973Z,84.90
2018-03-16T07:22:24.037Z,84.00
2018-03-16T07:22:58.068Z,82.30
2018-03-16T07:23:31.384Z,82.20
2018-03-16T07:24:04.685Z,82.40
2018-03-16T07:24:37.990Z,82.80
2018-03-16T07:25:11.308Z,82.90
2018-03-16T07:25:45.438Z,84.20
2018-03-16T07:26:18.774Z,84.10
2018-03-16T07:26:52.195Z,81.80
2018-03-16T07:27:25.646Z,80.30
2018-03-16T07:27:59.120Z,80.30
2018-03-16T07:28:32.440Z,80.30
2018-03-16T07:29:05.737Z,80.40
2018-03-16T07:29:39.085Z,80.30
2018-03-16T07:30:12.570Z,79.80
2018-03-16T07:30:46.625Z,81.00
2018-03-16T07:31:20.688Z,80.20
2018-03-16T07:31:54.062Z,80.10
2018-03-16T07:32:29.221Z,79.90
2018-03-16T07:33:02.526Z,79.80
2018-03-16T07:33:35.814Z,79.60
2018-03-16T07:34:09.127Z,79.40
2018-03-16T07:34:43.289Z,79.60
2018-03-16T07:35:16.568Z,79.40
2018-03-16T07:35:49.860Z,80.30
2018-03-16T07:36:23.295Z,80.30
2018-03-16T07:36:56.581Z,79.10
2018-03-16T07:37:29.989Z,78.80
2018-03-16T07:38:03.316Z,78.90
2018-03-16T07:38:38.167Z,79.20
2018-03-16T07:39:11.500Z,79.20
2018-03-16T07:39:44.938Z,79.00
2018-03-16T07:40:18.238Z,78.80
2018-03-16T07:40:52.317Z,78.20
2018-03-16T07:41:25.638Z,78.20
2018-03-16T07:41:58.926Z,78.50
2018-03-16T07:42:32.185Z,78.70
2018-03-16T07:43:06.391Z,78.10
2018-03-16T07:43:40.478Z,78.90
2018-03-16T07:44:14.587Z,79.00
2018-03-16T07:44:47.882Z,78.90
2018-03-16T07:46:35.277Z,80.10
2018-03-16T07:47:10.246Z,77.70
2018-03-16T07:47:43.632Z,77.70
2018-03-16T07:48:17.758Z,78.10
2018-03-16T07:48:51.016Z,78.00
2018-03-16T07:49:27.173Z,78.40
2018-03-16T07:50:01.458Z,78.30
2018-03-16T07:50:36.293Z,78.50
2018-03-16T07:51:09.641Z,77.80
2018-03-16T07:51:43.022Z,77.30
2018-03-16T07:52:16.368Z,77.20
2018-03-16T07:52:51.542Z,77.40
2018-03-16T07:53:24.915Z,77.30
2018-03-16T07:53:58.336Z,77.20
2018-03-16T08:35:30.390Z,77.20
2018-03-16T08:36:04.848Z,76.40
2018-03-16T08:36:38.294Z,76.80
2018-03-16T08:37:11.682Z,76.50
2018-03-16T08:37:44.970Z,76.80
2018-03-16T08:38:19.113Z,76.70
2018-03-16T08:38:52.451Z,76.70
2018-03-16T08:39:26.549Z,76.20
2018-03-16T08:40:00.641Z,75.80
2018-03-16T08:40:33.932Z,75.70
2018-03-16T08:41:08.019Z,76.60
2018-03-16T08:41:41.305Z,76.60
2018-03-16T08:42:14.684Z,75.60
2018-03-16T08:42:48.015Z,75.70
2018-03-16T08:43:21.449Z,75.70
2018-03-16T08:43:54.760Z,76.00
2018-03-16T08:44:28.987Z,75.80
2018-03-16T08:45:02.305Z,75.80
2018-03-16T08:45:35.604Z,75.80
2018-03-16T08:46:08.926Z,75.90
2018-03-16T08:46:43.925Z,75.70
2018-03-16T08:47:18.099Z,76.00
2018-03-16T08:47:51.388Z,76.10
2018-03-16T08:48:25.481Z,75.50
2018-03-16T08:48:58.913Z,75.40
2018-03-16T08:49:32.312Z,75.00
2018-03-16T08:50:05.626Z,75.20
2018-03-16T08:50:38.991Z,75.30
2018-03-16T08:51:13.101Z,75.00
2018-03-16T08:51:47.061Z,75.00
2018-03-16T08:52:20.439Z,74.80
2018-03-16T08:52:53.774Z,74.60
2018-03-16T08:53:27.067Z,74.70
2018-03-16T08:54:00.367Z,74.50
2018-03-16T08:54:34.541Z,74.80
2018-03-16T08:55:08.592Z,75.20
2018-03-16T08:55:41.891Z,76.00
2018-03-16T08:56:15.195Z,75.20
2018-03-16T08:56:48.570Z,73.30
2018-03-16T08:57:21.903Z,73.30
2018-03-16T08:57:55.297Z,73.30
2018-03-16T08:58:28.780Z,73.00
2018-03-16T08:59:02.083Z,73.10
2018-03-16T08:59:36.214Z,74.00
2018-03-16T09:00:09.496Z,74.00
2018-03-16T09:00:43.031Z,74.60
2018-03-16T09:01:16.333Z,74.60
2018-03-16T09:01:49.694Z,74.00
2018-03-16T09:02:23.025Z,73.70
2018-03-16T09:02:57.319Z,73.40
2018-03-16T09:03:30.805Z,73.40
2018-03-16T09:04:04.130Z,73.90
2018-03-16T09:04:38.192Z,72.50
2018-03-16T09:05:11.456Z,73.50
2018-03-16T09:05:45.530Z,73.20
2018-03-16T09:06:18.892Z,73.20
2018-03-16T09:06:52.288Z,72.60
2018-03-16T09:07:25.597Z,72.20
2018-03-16T09:07:59.732Z,71.50
2018-03-16T09:08:33.669Z,71.30
2018-03-16T09:09:07.059Z,70.30
2018-03-16T09:09:41.149Z,70.70
2018-03-16T09:10:15.333Z,70.90
2018-03-16T09:10:48.747Z,70.80
2018-03-16T09:11:23.313Z,71.30
2018-03-16T09:11:56.611Z,71.30
2018-03-16T09:12:29.970Z,70.90
2018-03-16T09:13:04.025Z,70.60
2018-03-16T09:13:38.164Z,71.70
2018-03-16T09:14:11.569Z,71.70
2018-03-16T09:14:45.665Z,70.00
2018-03-16T09:15:19.782Z,69.90
2018-03-16T09:15:53.128Z,69.90
2018-03-16T09:16:26.545Z,69.90
2018-03-16T09:17:00.597Z,70.40
2018-03-16T09:17:34.660Z,70.30
2018-03-16T09:18:08.123Z,70.20
2018-03-16T09:18:41.378Z,69.90
2018-03-16T09:19:15.166Z,70.10
2018-03-16T09:19:48.470Z,70.20
2018-03-16T09:20:23.333Z,70.40
2018-03-16T09:20:56.617Z,70.30
2018-03-16T09:21:30.694Z,70.60
2018-03-16T09:22:05.205Z,70.50
2018-03-16T09:22:38.506Z,71.00
2018-03-16T09:23:12.644Z,71.30
2018-03-16T09:23:45.946Z,71.20
2018-03-16T09:24:20.121Z,70.60
2018-03-16T09:24:53.419Z,70.60
2018-03-16T09:25:27.545Z,70.10
2018-03-16T09:26:00.903Z,70.00
2018-03-16T09:26:34.964Z,70.20
2018-03-16T09:27:09.149Z,70.80
2018-03-16T09:27:43.269Z,70.60
2018-03-16T09:28:16.596Z,70.50
2018-03-16T09:28:50.648Z,70.10
2018-03-16T09:29:24.532Z,70.00
2018-03-16T09:29:58.615Z,69.10
2018-03-16T09:30:31.933Z,69.10
2018-03-16T09:31:05.234Z,69.50
2018-03-16T09:31:38.658Z,69.70
2018-03-16T09:32:11.956Z,69.60
2018-03-16T09:32:46.002Z,68.30
2018-03-16T09:33:20.060Z,68.80
2018-03-16T09:33:54.198Z,69.00
2018-03-16T09:34:28.256Z,69.10
2018-03-16T09:35:03.550Z,68.60
2018-03-16T09:35:36.949Z,68.60
2018-03-16T09:36:10.287Z,69.30
2018-03-16T09:36:43.569Z,69.00
2018-03-16T09:37:17.822Z,68.20
2018-03-16T09:37:51.916Z,68.40
2018-03-16T09:38:25.222Z,68.30
2018-03-16T09:38:59.302Z,67.50
2018-03-16T09:39:33.454Z,68.40
2018-03-16T09:40:07.524Z,67.60
2018-03-16T09:40:41.800Z,68.30
2018-03-16T09:41:15.238Z,68.20
2018-03-16T09:41:49.318Z,68.60
2018-03-16T09:42:22.665Z,68.60
2018-03-16T09:42:56.047Z,68.50
2018-03-16T09:43:29.410Z,68.70
2018-03-16T09:44:02.714Z,68.90
2018-03-16T09:44:37.735Z,68.80
2018-03-16T09:45:11.036Z,68.20
2018-03-16T09:45:45.171Z,67.80
2018-03-16T09:46:19.311Z,67.20
2018-03-16T09:46:52.701Z,67.20
2018-03-16T09:47:26.000Z,67.10
2018-03-16T09:48:00.037Z,67.10
2018-03-16T09:48:33.411Z,67.10
2018-03-16T09:49:06.713Z,67.00
2018-03-16T09:49:40.769Z,68.10
2018-03-16T09:50:14.864Z,68.20
2018-03-16T09:50:49.041Z,68.00
2018-03-16T09:51:23.664Z,68.00
2018-03-16T09:51:57.784Z,67.50
2018-03-16T09:52:31.833Z,66.30
2018-03-16T09:53:05.185Z,66.30
2018-03-16T09:53:39.846Z,65.80
2018-03-16T09:54:13.147Z,65.90
2018-03-16T09:55:04.256Z,65.70
2018-03-16T09:55:44.178Z,66.70
2018-03-16T09:56:18.379Z,68.70
2018-03-16T09:56:52.974Z,66.60
2018-03-16T09:57:26.364Z,66.50
2018-03-16T09:57:59.695Z,66.60
2018-03-16T09:58:33.836Z,65.30
2018-03-16T09:59:07.132Z,65.30
2018-03-16T09:59:41.207Z,66.10
2018-03-16T10:00:14.506Z,65.50
2018-03-16T10:00:48.547Z,66.10
2018-03-16T10:01:21.986Z,64.80
2018-03-16T10:01:55.383Z,64.90
2018-03-16T10:02:29.455Z,65.40
2018-03-16T10:03:03.991Z,65.40
2018-03-16T10:03:38.109Z,65.00
2018-03-16T10:04:11.505Z,65.00
2018-03-16T10:04:44.841Z,65.50
2018-03-16T10:05:18.194Z,64.90
2018-03-16T10:05:52.393Z,65.40
2018-03-16T10:06:27.589Z,65.30
2018-03-16T10:07:01.630Z,65.30
2018-03-16T10:07:35.039Z,65.90
2018-03-16T10:08:08.350Z,66.80
2018-03-16T10:08:42.469Z,66.30
2018-03-16T10:09:15.796Z,66.30
2018-03-16T10:09:49.212Z,66.60
2018-03-16T10:10:23.317Z,67.50
2018-03-16T10:10:56.856Z,67.50
2018-03-16T10:11:30.248Z,68.30
2018-03-16T10:12:03.584Z,69.20
2018-03-16T10:12:36.920Z,68.30
2018-03-16T10:13:11.203Z,68.40
2018-03-16T10:13:45.257Z,67.10
2018-03-16T10:14:20.416Z,67.10
2018-03-16T10:14:54.499Z,68.50
2018-03-16T10:15:27.836Z,68.40
2018-03-16T10:16:01.194Z,66.70
2018-03-16T10:16:34.504Z,67.60
2018-03-16T10:17:08.630Z,67.30
2018-03-16T10:17:42.651Z,67.20
2018-03-16T10:18:26.979Z,67.40
2018-03-16T10:19:00.326Z,67.30
2018-03-16T10:19:34.526Z,68.50
2018-03-16T10:20:10.388Z,69.30
2018-03-16T10:20:44.449Z,68.30
2018-03-16T10:21:17.956Z,68.30
2018-03-16T10:21:54.252Z,68.40
2018-03-16T10:22:28.444Z,68.20
2018-03-16T10:23:01.774Z,68.10
2018-03-16T10:23:35.080Z,68.20
2018-03-16T10:24:09.154Z,67.60
2018-03-16T10:24:42.441Z,67.60
2018-03-16T10:25:15.748Z,66.80
2018-03-16T10:25:49.829Z,66.70
2018-03-16T10:26:23.122Z,66.70
2018-03-16T10:26:57.216Z,66.80
2018-03-16T10:27:32.747Z,67.10
2018-03-16T10:28:06.081Z,66.90
2018-03-16T10:28:40.899Z,67.60
2018-03-16T10:29:14.969Z,67.80
2018-03-16T10:29:48.413Z,67.80
2018-03-16T10:30:21.797Z,67.60
2018-03-16T10:30:56.184Z,68.30
2018-03-16T10:31:31.582Z,68.20
2018-03-16T10:32:04.892Z,68.20
2018-03-16T10:32:38.226Z,68.20
2018-03-16T10:33:11.530Z,68.10
2018-03-16T10:33:44.855Z,67.80
2018-03-16T10:34:18.192Z,66.90
2018-03-16T10:34:51.612Z,66.00
2018-03-16T10:35:27.951Z,66.30
2018-03-16T10:36:02.306Z,66.90
2018-03-16T10:36:36.473Z,67.40
2018-03-16T10:37:09.837Z,67.40
2018-03-16T10:37:43.970Z,67.30
2018-03-16T10:38:17.280Z,67.30
2018-03-16T10:38:51.393Z,66.50
2018-03-16T10:39:24.768Z,66.50
2018-03-16T10:39:58.097Z,66.60
2018-03-16T10:40:31.459Z,66.40
2018-03-16T10:41:06.642Z,66.20
2018-03-16T10:41:41.952Z,65.40
2018-03-16T10:42:15.334Z,65.30
2018-03-16T10:42:48.676Z,65.60
2018-03-16T10:43:22.662Z,66.00
2018-03-16T10:43:56.127Z,66.30
2018-03-16T10:44:30.198Z,67.50
2018-03-16T10:45:03.703Z,67.50
2018-03-16T10:45:39.009Z,66.90
2018-03-16T10:46:12.320Z,66.80
2018-03-16T10:46:46.376Z,66.50
2018-03-16T10:47:19.669Z,66.60
2018-03-16T10:47:52.977Z,66.30
2018-03-16T10:48:27.057Z,65.50
2018-03-16T10:49:01.021Z,65.40
2018-03-16T10:49:34.440Z,64.80
2018-03-16T10:50:07.867Z,64.70
2018-03-16T10:50:41.277Z,64.10
2018-03-16T10:51:15.425Z,64.70
2018-03-16T10:51:49.725Z,65.00
2018-03-16T10:52:25.188Z,64.70
2018-03-16T10:52:58.572Z,64.70
2018-03-16T10:53:31.906Z,64.30
2018-03-16T10:54:05.246Z,64.20
2018-03-16T10:54:38.720Z,65.00
2018-03-16T10:55:13.182Z,65.00
2018-03-16T10:55:48.236Z,64.80
2018-03-16T10:56:22.350Z,65.00
2018-03-16T10:56:55.674Z,65.00
2018-03-16T10:57:29.768Z,64.80
2018-03-16T10:58:03.277Z,64.70
2018-03-16T10:58:36.577Z,64.90
2018-03-16T10:59:10.685Z,64.80
2018-03-16T10:59:44.465Z,64.80
2018-03-16T11:00:23.985Z,65.10
2018-03-16T11:00:59.846Z,66.20
2018-03-16T11:01:38.641Z,65.10
2018-03-16T11:02:18.188Z,65.50
2018-03-16T11:02:51.504Z,65.50
2018-03-16T11:03:25.683Z,66.00
2018-03-16T11:03:59.781Z,65.90
2018-03-16T11:04:38.747Z,65.10
2018-03-16T11:05:17.536Z,65.10
2018-03-16T11:05:55.553Z,64.40
2018-03-16T11:06:34.863Z,64.40
2018-03-16T11:07:09.048Z,64.00
2018-03-16T11:07:44.123Z,64.40
2018-03-16T11:08:23.767Z,64.80
2018-03-16T11:08:57.187Z,64.80
2018-03-16T11:09:31.383Z,65.80
2018-03-16T11:10:04.715Z,65.00
2018-03-16T11:10:38.149Z,65.00
2018-03-16T11:11:12.277Z,65.80
2018-03-16T11:11:46.382Z,66.20
2018-03-16T11:12:20.432Z,66.10
2018-03-16T11:12:53.902Z,66.00
2018-03-16T11:13:27.200Z,66.20
2018-03-16T11:14:01.187Z,66.20
2018-03-16T11:14:34.478Z,66.30
2018-03-16T11:15:08.688Z,66.40
2018-03-16T11:15:42.778Z,67.00
2018-03-16T11:16:16.106Z,66.90
2018-03-16T11:16:49.498Z,67.10
2018-03-16T11:17:23.578Z,67.00
2018-03-16T11:17:56.931Z,66.90
2018-03-16T11:18:30.291Z,67.00
2018-03-16T11:19:03.619Z,66.50
2018-03-16T11:19:36.959Z,66.50
2018-03-16T11:20:10.913Z,66.00
2018-03-16T11:20:45.263Z,66.80
2018-03-16T11:21:19.729Z,65.50
2018-03-16T11:21:53.845Z,65.90
2018-03-16T11:22:27.918Z,65.90
2018-03-16T11:23:01.350Z,65.80
2018-03-16T11:23:35.501Z,65.80
2018-03-16T11:24:08.854Z,65.80
2018-03-16T11:24:43.012Z,65.80
2018-03-16T11:25:16.441Z,65.80
2018-03-16T11:25:50.597Z,67.00
2018-03-16T11:26:24.962Z,67.20
2018-03-16T11:26:58.549Z,67.10
2018-03-16T11:27:31.991Z,66.60
2018-03-16T11:28:06.247Z,66.70
2018-03-16T11:28:39.644Z,66.70
2018-03-16T11:29:13.051Z,67.20
2018-03-16T11:29:47.127Z,67.40
2018-03-16T11:30:21.245Z,68.00
2018-03-16T11:30:54.711Z,67.30
2018-03-16T11:31:29.298Z,68.30
2018-03-16T11:32:02.755Z,68.30
2018-03-16T11:32:36.141Z,68.60
2018-03-16T11:33:10.647Z,68.20
2018-03-16T11:33:44.170Z,68.30
2018-03-16T11:34:17.708Z,68.30
2018-03-16T11:34:51.064Z,68.50
2018-03-16T11:35:24.412Z,68.60
2018-03-16T11:35:58.636Z,69.20
2018-03-16T11:36:32.895Z,69.50
2018-03-16T11:37:06.395Z,69.30
2018-03-16T11:37:40.554Z,70.00
2018-03-16T11:38:14.676Z,70.00
2018-03-16T11:38:56.808Z,69.80
2018-03-16T11:39:30.231Z,70.00
2018-03-16T11:40:04.390Z,70.40
2018-03-16T11:40:38.594Z,70.80
2018-03-16T11:41:13.015Z,70.70
2018-03-16T11:41:46.464Z,70.70
2018-03-16T11:42:20.616Z,70.80
2018-03-16T11:42:54.770Z,70.40
2018-03-16T11:43:28.159Z,70.40
2018-03-16T11:44:02.475Z,70.40
2018-03-16T11:44:36.801Z,70.50
2018-03-16T11:45:11.002Z,70.30
2018-03-16T11:45:44.387Z,70.30
2018-03-16T11:46:18.651Z,70.60
2018-03-16T11:46:56.040Z,70.40
2018-03-16T11:47:30.186Z,70.50
2018-03-16T11:48:04.353Z,70.60
2018-03-16T11:48:38.080Z,70.30
2018-03-16T11:49:12.564Z,71.30
2018-03-16T11:49:45.874Z,70.60
2018-03-16T11:50:19.321Z,70.40
2018-03-16T11:50:52.716Z,69.40
2018-03-16T11:51:28.157Z,69.30
2018-03-16T11:52:02.305Z,68.60
2018-03-16T11:52:35.842Z,68.60
2018-03-16T11:53:09.291Z,68.20
2018-03-16T11:53:42.663Z,67.80
2018-03-16T11:54:16.230Z,67.90
2018-03-16T11:54:49.897Z,67.90
2018-03-16T11:55:24.107Z,67.90
2018-03-16T11:55:58.651Z,67.90
2018-03-16T11:56:32.917Z,67.70
2018-03-16T11:57:07.301Z,67.60
2018-03-16T11:57:40.833Z,67.60
2018-03-16T11:58:15.316Z,67.50
2018-03-16T11:58:49.631Z,67.80
2018-03-16T11:59:23.110Z,67.70
2018-03-16T11:59:57.506Z,67.70
2018-03-16T12:00:31.690Z,67.80
2018-03-16T12:01:05.363Z,67.50
2018-03-16T12:01:38.800Z,67.10
2018-03-16T12:02:13.136Z,66.90
2018-03-16T12:02:47.311Z,67.00
2018-03-16T12:03:20.906Z,67.00
2018-03-16T12:03:54.292Z,66.70
2018-03-16T12:04:27.760Z,66.70
2018-03-16T12:05:01.934Z,65.50
2018-03-16T12:05:36.112Z,64.20
2018-03-16T12:06:10.224Z,63.10
2018-03-16T12:06:43.632Z,63.10
2018-03-16T12:07:17.098Z,62.40
2018-03-16T12:07:51.268Z,62.40
2018-03-16T12:08:25.406Z,62.80
2018-03-16T12:08:58.825Z,62.00
2018-03-16T12:09:32.343Z,62.10
2018-03-16T12:10:05.772Z,61.40
2018-03-16T12:10:39.095Z,60.50
2018-03-16T12:11:12.662Z,60.80
2018-03-16T12:11:46.915Z,59.90
2018-03-16T12:12:20.439Z,59.80
2018-03-16T12:12:55.432Z,59.30
2018-03-16T12:13:28.886Z,59.30
2018-03-16T12:14:02.215Z,59.50
2018-03-16T12:14:37.354Z,59.40
2018-03-16T12:15:11.444Z,59.60
2018-03-16T12:15:45.600Z,59.30
2018-03-16T12:16:20.699Z,58.40
2018-03-16T12:16:54.037Z,58.40
2018-03-16T12:17:28.294Z,58.60
2018-03-16T12:18:01.724Z,58.70
2018-03-16T12:18:35.114Z,58.20
2018-03-16T12:19:08.502Z,58.50
2018-03-16T12:19:42.647Z,58.70
2018-03-16T12:20:16.393Z,58.60
2018-03-16T12:20:49.743Z,58.00
2018-03-16T12:21:23.109Z,58.40
2018-03-16T12:21:56.512Z,58.60
2018-03-16T12:22:29.840Z,59.00
2018-03-16T12:23:03.909Z,58.50
2018-03-16T12:23:37.304Z,58.60
2018-03-16T12:24:10.633Z,58.70
2018-03-16T12:24:44.757Z,58.40
2018-03-16T12:25:18.171Z,58.40
2018-03-16T12:25:51.557Z,58.20
2018-03-16T12:26:25.728Z,58.50
2018-03-16T12:26:59.087Z,58.50
2018-03-16T12:27:33.259Z,58.10
2018-03-16T12:28:06.680Z,58.10
2018-03-16T12:28:49.753Z,58.00
2018-03-16T12:29:13.382Z,57.70
2018-03-16T12:29:46.769Z,58.00
2018-03-16T12:30:21.022Z,58.10
2018-03-16T12:30:54.432Z,58.10
2018-03-16T12:31:28.029Z,57.80
2018-03-16T12:32:01.473Z,58.10
2018-03-16T12:32:35.822Z,58.10
2018-03-16T12:33:09.237Z,58.50
2018-03-16T12:33:42.681Z,58.70
2018-03-16T12:34:16.094Z,58.20
2018-03-16T12:34:50.286Z,57.80
2018-03-16T12:35:23.668Z,57.70
2018-03-16T12:35:57.076Z,57.30
2018-03-16T12:36:31.257Z,57.00
2018-03-16T12:37:05.396Z,56.60
2018-03-16T12:37:38.967Z,56.60
2018-03-16T12:38:12.437Z,56.60
2018-03-16T12:38:47.610Z,56.10
2018-03-16T12:39:21.792Z,56.40
2018-03-16T12:39:55.218Z,56.30
2018-03-16T12:40:28.670Z,56.40
2018-03-16T12:41:02.882Z,56.10
2018-03-16T12:41:37.154Z,56.20
2018-03-16T12:42:11.519Z,56.20
2018-03-16T12:42:44.939Z,56.20
2018-03-16T12:43:19.088Z,55.30
2018-03-16T12:43:53.335Z,55.20
2018-03-16T12:44:27.539Z,54.80
2018-03-16T12:45:01.676Z,54.80
2018-03-16T12:45:35.141Z,54.80
2018-03-16T12:46:08.525Z,55.10
2018-03-16T12:46:41.937Z,54.90
2018-03-16T12:47:16.344Z,54.10
2018-03-16T12:47:50.511Z,53.60
2018-03-16T12:48:29.083Z,53.50
2018-03-16T12:49:02.760Z,53.50
2018-03-16T12:49:36.462Z,52.80
2018-03-16T12:55:15.829Z,53.70
2018-03-16T12:55:49.241Z,54.20
2018-03-16T12:56:22.673Z,54.40
2018-03-16T12:56:56.811Z,54.70
2018-03-16T12:57:30.178Z,54.70
2018-03-16T12:58:04.327Z,54.40
2018-03-16T12:58:37.713Z,54.30
2018-03-16T12:59:11.047Z,54.00
2018-03-16T12:59:44.451Z,53.90
2018-03-16T13:00:18.700Z,53.60
2018-03-16T13:00:52.883Z,53.50
2018-03-16T13:01:26.269Z,53.50
2018-03-16T13:01:59.673Z,53.50
2018-03-16T13:02:33.891Z,53.90
2018-03-16T13:03:07.332Z,54.50
2018-03-16T13:03:40.818Z,53.90
2018-03-16T13:04:15.037Z,52.70
2018-03-16T13:04:49.273Z,52.60
2018-03-16T13:05:22.651Z,52.60
2018-03-16T13:05:55.994Z,52.40
2018-03-16T13:06:29.346Z,52.40
2018-03-16T13:07:03.482Z,53.00
2018-03-16T13:07:37.612Z,52.40
2018-03-16T13:08:10.972Z,52.40
2018-03-16T13:08:44.328Z,52.80
2018-03-16T13:09:17.669Z,53.40
2018-03-16T13:09:51.121Z,53.60
2018-03-16T13:10:24.463Z,53.70
2018-03-16T13:10:58.618Z,54.20
2018-03-16T13:11:32.099Z,54.20
2018-03-16T13:12:06.280Z,53.70
2018-03-16T13:12:39.673Z,53.70
2018-03-16T13:13:13.812Z,53.70
2018-03-16T13:13:49.633Z,53.50
2018-03-16T13:14:23.046Z,53.50
2018-03-16T13:14:58.222Z,52.80
2018-03-16T13:15:32.483Z,52.70
2018-03-16T13:16:06.708Z,52.90
2018-03-16T13:16:40.216Z,52.90
2018-03-16T13:17:14.396Z,53.10
2018-03-16T13:17:48.551Z,52.20
2018-03-16T13:18:22.008Z,52.20
2018-03-16T13:18:56.251Z,51.80
2018-03-16T13:19:29.652Z,51.70
2018-03-16T13:20:03.106Z,52.20
2018-03-16T13:20:36.474Z,52.10
2018-03-16T13:21:10.643Z,51.70
2018-03-16T13:21:45.173Z,51.70
2018-03-16T13:22:19.317Z,51.90
2018-03-16T13:22:52.696Z,51.80
2018-03-16T13:23:26.200Z,52.00
2018-03-16T13:23:59.530Z,52.00
2018-03-16T13:24:33.627Z,52.70
2018-03-16T13:25:07.690Z,52.00
2018-03-16T13:25:40.987Z,51.90
2018-03-16T13:26:14.326Z,51.70
2018-03-16T13:26:47.617Z,52.00
2018-03-16T13:27:21.749Z,51.20